sensor_id;sensor_type;location;lat;lon;timestamp;pressure;altitude;pressure_sealevel;temperature;humidity
78615;BME280;67937;52.488;20.952;2023-04-03T00:01:18;101278.48;;;1.07;68.39
78615;BME280;67937;52.488;20.952;2023-04-03T00:03:46;101284.85;;;1.09;68.44
78615;BME280;67937;52.488;20.952;2023-04-03T00:06:14;101287.52;;;1.08;68.16
78615;BME280;67937;52.488;20.952;2023-04-03T00:08:42;101291.54;;;1.06;68.12
78615;BME280;67937;52.488;20.952;2023-04-03T00:11:10;101295.29;;;1.02;68.26
78615;BME280;67937;52.488;20.952;2023-04-03T00:13:39;101294.13;;;1.00;68.01
78615;BME280;67937;52.488;20.952;2023-04-03T00:16:08;101294.89;;;0.97;68.28
78615;BME280;67937;52.488;20.952;2023-04-03T00:18:38;101296.84;;;0.96;68.11
78615;BME280;67937;52.488;20.952;2023-04-03T00:21:07;101300.23;;;0.92;68.29
78615;BME280;67937;52.488;20.952;2023-04-03T00:23:35;101301.30;;;0.91;67.96
78615;BME280;67937;52.488;20.952;2023-04-03T00:26:03;101299.23;;;0.91;67.89
78615;BME280;67937;52.488;20.952;2023-04-03T00:28:31;101305.16;;;0.90;67.76
78615;BME280;67937;52.488;20.952;2023-04-03T00:30:59;101305.58;;;0.87;67.95
78615;BME280;67937;52.488;20.952;2023-04-03T00:33:27;101303.60;;;0.89;67.81
78615;BME280;67937;52.488;20.952;2023-04-03T00:35:55;101303.54;;;0.85;67.84
78615;BME280;67937;52.488;20.952;2023-04-03T00:38:23;101299.31;;;0.80;68.11
78615;BME280;67937;52.488;20.952;2023-04-03T00:40:51;101307.85;;;0.79;67.86
78615;BME280;67937;52.488;20.952;2023-04-03T00:43:24;101305.84;;;0.76;68.19
78615;BME280;67937;52.488;20.952;2023-04-03T00:45:57;101306.35;;;0.76;68.01
78615;BME280;67937;52.488;20.952;2023-04-03T00:48:37;101307.75;;;0.76;67.97
78615;BME280;67937;52.488;20.952;2023-04-03T00:51:11;101308.78;;;0.69;68.09
78615;BME280;67937;52.488;20.952;2023-04-03T00:53:50;101310.58;;;0.67;68.39
78615;BME280;67937;52.488;20.952;2023-04-03T00:56:23;101314.52;;;0.69;67.90
78615;BME280;67937;52.488;20.952;2023-04-03T00:58:55;101314.88;;;0.69;67.83
78615;BME280;67937;52.488;20.952;2023-04-03T01:01:27;101314.98;;;0.64;68.19
78615;BME280;67937;52.488;20.952;2023-04-03T01:03:55;101318.67;;;0.61;68.32
78615;BME280;67937;52.488;20.952;2023-04-03T01:06:27;101321.54;;;0.58;68.48
78615;BME280;67937;52.488;20.952;2023-04-03T01:08:57;101321.23;;;0.56;68.45
78615;BME280;67937;52.488;20.952;2023-04-03T01:11:25;101327.20;;;0.54;68.46
78615;BME280;67937;52.488;20.952;2023-04-03T01:13:53;101329.05;;;0.49;68.58
78615;BME280;67937;52.488;20.952;2023-04-03T01:16:22;101332.52;;;0.49;68.54
78615;BME280;67937;52.488;20.952;2023-04-03T01:18:50;101334.48;;;0.47;68.28
78615;BME280;67937;52.488;20.952;2023-04-03T01:24:27;101339.61;;;0.42;68.29
78615;BME280;67937;52.488;20.952;2023-04-03T01:27:00;101341.44;;;0.38;68.48
78615;BME280;67937;52.488;20.952;2023-04-03T01:29:29;101345.01;;;0.34;68.64
78615;BME280;67937;52.488;20.952;2023-04-03T01:31:58;101343.35;;;0.30;68.71
78615;BME280;67937;52.488;20.952;2023-04-03T01:34:28;101347.85;;;0.30;68.64
78615;BME280;67937;52.488;20.952;2023-04-03T01:36:57;101350.91;;;0.25;68.75
78615;BME280;67937;52.488;20.952;2023-04-03T01:39:25;101352.30;;;0.25;68.74
78615;BME280;67937;52.488;20.952;2023-04-03T01:41:53;101357.44;;;0.20;68.83
78615;BME280;67937;52.488;20.952;2023-04-03T01:44:21;101359.18;;;0.20;68.76
78615;BME280;67937;52.488;20.952;2023-04-03T01:46:49;101361.31;;;0.18;68.72
78615;BME280;67937;52.488;20.952;2023-04-03T01:49:17;101364.50;;;0.14;68.91
78615;BME280;67937;52.488;20.952;2023-04-03T01:51:45;101362.59;;;0.15;68.81
78615;BME280;67937;52.488;20.952;2023-04-03T01:54:13;101365.78;;;0.11;68.83
78615;BME280;67937;52.488;20.952;2023-04-03T01:56:41;101364.45;;;0.08;68.86
78615;BME280;67937;52.488;20.952;2023-04-03T01:59:09;101367.64;;;0.06;69.34
78615;BME280;67937;52.488;20.952;2023-04-03T02:01:37;101374.89;;;0.07;69.64
78615;BME280;67937;52.488;20.952;2023-04-03T02:04:05;101376.48;;;0.05;69.64
78615;BME280;67937;52.488;20.952;2023-04-03T02:06:33;101376.67;;;0.04;69.61
78615;BME280;67937;52.488;20.952;2023-04-03T02:09:01;101376.20;;;0.02;69.41
78615;BME280;67937;52.488;20.952;2023-04-03T02:11:29;101377.30;;;-0.02;69.32
78615;BME280;67937;52.488;20.952;2023-04-03T02:13:57;101381.02;;;-0.05;69.38
78615;BME280;67937;52.488;20.952;2023-04-03T02:16:25;101380.95;;;-0.11;69.55
78615;BME280;67937;52.488;20.952;2023-04-03T02:18:53;101383.95;;;-0.14;69.46
78615;BME280;67937;52.488;20.952;2023-04-03T02:21:21;101384.70;;;-0.17;69.30
78615;BME280;67937;52.488;20.952;2023-04-03T02:23:49;101387.36;;;-0.20;69.58
78615;BME280;67937;52.488;20.952;2023-04-03T02:26:17;101385.86;;;-0.23;69.92
78615;BME280;67937;52.488;20.952;2023-04-03T02:28:45;101388.61;;;-0.22;70.34
78615;BME280;67937;52.488;20.952;2023-04-03T02:31:13;101389.52;;;-0.24;70.75
78615;BME280;67937;52.488;20.952;2023-04-03T02:33:41;101388.66;;;-0.24;70.39
78615;BME280;67937;52.488;20.952;2023-04-03T02:36:10;101394.39;;;-0.25;69.96
78615;BME280;67937;52.488;20.952;2023-04-03T02:38:38;101390.33;;;-0.30;69.95
78615;BME280;67937;52.488;20.952;2023-04-03T02:41:09;101390.21;;;-0.33;69.88
78615;BME280;67937;52.488;20.952;2023-04-03T02:43:38;101391.80;;;-0.35;69.77
78615;BME280;67937;52.488;20.952;2023-04-03T02:46:06;101392.41;;;-0.40;69.87
78615;BME280;67937;52.488;20.952;2023-04-03T02:48:35;101396.27;;;-0.42;70.02
78615;BME280;67937;52.488;20.952;2023-04-03T02:51:03;101398.33;;;-0.41;70.39
78615;BME280;67937;52.488;20.952;2023-04-03T02:53:31;101401.10;;;-0.42;70.98
78615;BME280;67937;52.488;20.952;2023-04-03T02:55:59;101401.46;;;-0.42;70.99
78615;BME280;67937;52.488;20.952;2023-04-03T02:58:27;101402.42;;;-0.47;71.04
78615;BME280;67937;52.488;20.952;2023-04-03T03:00:55;101404.65;;;-0.46;70.77
78615;BME280;67937;52.488;20.952;2023-04-03T03:03:22;101405.55;;;-0.48;70.35
78615;BME280;67937;52.488;20.952;2023-04-03T03:06:01;101407.52;;;-0.51;70.25
78615;BME280;67937;52.488;20.952;2023-04-03T03:08:29;101410.70;;;-0.55;70.48
78615;BME280;67937;52.488;20.952;2023-04-03T03:10:57;101410.10;;;-0.60;70.32
78615;BME280;67937;52.488;20.952;2023-04-03T03:13:25;101408.70;;;-0.59;70.38
78615;BME280;67937;52.488;20.952;2023-04-03T03:15:53;101410.46;;;-0.62;70.78
78615;BME280;67937;52.488;20.952;2023-04-03T03:18:22;101412.68;;;-0.60;71.14
78615;BME280;67937;52.488;20.952;2023-04-03T03:20:54;101414.27;;;-0.60;70.96
78615;BME280;67937;52.488;20.952;2023-04-03T03:23:23;101408.42;;;-0.63;70.81
78615;BME280;67937;52.488;20.952;2023-04-03T03:25:59;101410.91;;;-0.67;70.91
78615;BME280;67937;52.488;20.952;2023-04-03T03:28:27;101408.70;;;-0.70;70.89
78615;BME280;67937;52.488;20.952;2023-04-03T03:30:56;101409.83;;;-0.75;70.93
78615;BME280;67937;52.488;20.952;2023-04-03T03:33:25;101413.99;;;-0.76;71.15
78615;BME280;67937;52.488;20.952;2023-04-03T03:35:53;101417.65;;;-0.76;71.64
78615;BME280;67937;52.488;20.952;2023-04-03T03:38:22;101424.19;;;-0.74;72.25
78615;BME280;67937;52.488;20.952;2023-04-03T03:40:51;101427.63;;;-0.72;71.90
78615;BME280;67937;52.488;20.952;2023-04-03T03:43:19;101425.77;;;-0.75;71.57
78615;BME280;67937;52.488;20.952;2023-04-03T03:45:51;101428.38;;;-0.77;71.46
78615;BME280;67937;52.488;20.952;2023-04-03T03:48:20;101426.65;;;-0.76;71.18
78615;BME280;67937;52.488;20.952;2023-04-03T03:50:48;101424.95;;;-0.78;71.16
78615;BME280;67937;52.488;20.952;2023-04-03T03:53:16;101429.98;;;-0.80;71.10
78615;BME280;67937;52.488;20.952;2023-04-03T03:55:44;101432.30;;;-0.83;71.15
78615;BME280;67937;52.488;20.952;2023-04-03T03:58:12;101427.30;;;-0.84;71.50
78615;BME280;67937;52.488;20.952;2023-04-03T04:00:40;101429.21;;;-0.85;71.89
78615;BME280;67937;52.488;20.952;2023-04-03T04:03:08;101422.44;;;-0.84;72.22
78615;BME280;67937;52.488;20.952;2023-04-03T04:05:36;101423.62;;;-0.82;71.82
78615;BME280;67937;52.488;20.952;2023-04-03T04:08:04;101419.45;;;-0.82;71.43
78615;BME280;67937;52.488;20.952;2023-04-03T04:10:33;101422.61;;;-0.84;71.31
78615;BME280;67937;52.488;20.952;2023-04-03T04:13:01;101425.91;;;-0.85;71.11
78615;BME280;67937;52.488;20.952;2023-04-03T04:15:29;101426.67;;;-0.89;71.23
78615;BME280;67937;52.488;20.952;2023-04-03T04:17:57;101425.67;;;-0.91;71.38
78615;BME280;67937;52.488;20.952;2023-04-03T04:20:25;101426.15;;;-0.88;71.34
78615;BME280;67937;52.488;20.952;2023-04-03T04:22:53;101427.72;;;-0.90;71.48
78615;BME280;67937;52.488;20.952;2023-04-03T04:25:21;101427.18;;;-0.88;72.06
78615;BME280;67937;52.488;20.952;2023-04-03T04:27:49;101425.36;;;-0.83;71.80
78615;BME280;67937;52.488;20.952;2023-04-03T04:30:17;101430.42;;;-0.85;71.68
78615;BME280;67937;52.488;20.952;2023-04-03T04:32:45;101430.28;;;-0.87;71.61
78615;BME280;67937;52.488;20.952;2023-04-03T04:35:13;101433.88;;;-0.84;71.48
78615;BME280;67937;52.488;20.952;2023-04-03T04:37:41;101435.76;;;-0.82;71.37
78615;BME280;67937;52.488;20.952;2023-04-03T04:40:09;101433.84;;;-0.82;71.20
78615;BME280;67937;52.488;20.952;2023-04-03T04:42:37;101438.69;;;-0.81;71.14
78615;BME280;67937;52.488;20.952;2023-04-03T04:45:06;101441.41;;;-0.79;71.41
78615;BME280;67937;52.488;20.952;2023-04-03T04:47:34;101439.46;;;-0.75;71.52
78615;BME280;67937;52.488;20.952;2023-04-03T04:50:02;101440.58;;;-0.70;71.28
78615;BME280;67937;52.488;20.952;2023-04-03T04:52:30;101443.88;;;-0.70;71.23
78615;BME280;67937;52.488;20.952;2023-04-03T04:54:58;101449.77;;;-0.70;71.30
78615;BME280;67937;52.488;20.952;2023-04-03T04:57:26;101448.63;;;-0.63;70.95
78615;BME280;67937;52.488;20.952;2023-04-03T04:59:54;101451.38;;;-0.61;70.66
78615;BME280;67937;52.488;20.952;2023-04-03T05:02:23;101455.20;;;-0.62;70.69
78615;BME280;67937;52.488;20.952;2023-04-03T05:04:51;101459.29;;;-0.58;70.56
78615;BME280;67937;52.488;20.952;2023-04-03T05:07:19;101463.66;;;-0.60;70.55
78615;BME280;67937;52.488;20.952;2023-04-03T05:09:47;101472.86;;;-0.51;70.53
78615;BME280;67937;52.488;20.952;2023-04-03T05:12:16;101471.93;;;-0.46;70.23
78615;BME280;67937;52.488;20.952;2023-04-03T05:14:44;101476.53;;;-0.41;70.06
78615;BME280;67937;52.488;20.952;2023-04-03T05:17:12;101481.70;;;-0.40;70.05
78615;BME280;67937;52.488;20.952;2023-04-03T05:19:40;101480.95;;;-0.35;69.70
78615;BME280;67937;52.488;20.952;2023-04-03T05:22:08;101481.77;;;-0.33;69.75
78615;BME280;67937;52.488;20.952;2023-04-03T05:24:36;101485.27;;;-0.26;69.36
78615;BME280;67937;52.488;20.952;2023-04-03T05:27:04;101483.55;;;-0.25;69.35
78615;BME280;67937;52.488;20.952;2023-04-03T05:29:32;101483.80;;;-0.20;69.34
78615;BME280;67937;52.488;20.952;2023-04-03T05:32:00;101489.47;;;-0.17;69.27
78615;BME280;67937;52.488;20.952;2023-04-03T05:34:28;101494.77;;;-0.13;69.08
78615;BME280;67937;52.488;20.952;2023-04-03T05:36:56;101495.77;;;-0.10;69.08
78615;BME280;67937;52.488;20.952;2023-04-03T05:39:24;101494.21;;;-0.11;68.84
78615;BME280;67937;52.488;20.952;2023-04-03T05:41:52;101500.13;;;-0.11;68.97
78615;BME280;67937;52.488;20.952;2023-04-03T05:44:20;101503.50;;;-0.06;69.11
78615;BME280;67937;52.488;20.952;2023-04-03T05:46:49;101509.55;;;0.06;68.94
78615;BME280;67937;52.488;20.952;2023-04-03T05:49:17;101507.44;;;0.17;68.73
78615;BME280;67937;52.488;20.952;2023-04-03T05:51:45;101507.09;;;0.27;68.27
78615;BME280;67937;52.488;20.952;2023-04-03T05:54:20;101508.63;;;0.37;68.08
78615;BME280;67937;52.488;20.952;2023-04-03T05:56:50;101510.70;;;0.47;67.87
78615;BME280;67937;52.488;20.952;2023-04-03T05:59:20;101512.75;;;0.58;67.81
78615;BME280;67937;52.488;20.952;2023-04-03T06:01:48;101517.02;;;0.70;67.77
78615;BME280;67937;52.488;20.952;2023-04-03T06:04:16;101520.82;;;0.79;67.32
78615;BME280;67937;52.488;20.952;2023-04-03T06:06:50;101521.20;;;0.86;67.31
78615;BME280;67937;52.488;20.952;2023-04-03T06:09:21;101522.40;;;0.95;66.89
78615;BME280;67937;52.488;20.952;2023-04-03T06:11:50;101523.35;;;0.99;66.41
78615;BME280;67937;52.488;20.952;2023-04-03T06:14:18;101522.38;;;1.04;66.60
78615;BME280;67937;52.488;20.952;2023-04-03T06:16:47;101527.29;;;1.18;65.90
78615;BME280;67937;52.488;20.952;2023-04-03T06:19:15;101527.67;;;1.25;65.47
78615;BME280;67937;52.488;20.952;2023-04-03T06:21:43;101524.36;;;1.25;65.09
78615;BME280;67937;52.488;20.952;2023-04-03T06:24:14;101521.34;;;1.27;65.14
78615;BME280;67937;52.488;20.952;2023-04-03T06:26:42;101533.06;;;1.32;64.86
78615;BME280;67937;52.488;20.952;2023-04-03T06:29:10;101535.79;;;1.27;65.10
78615;BME280;67937;52.488;20.952;2023-04-03T06:31:39;101533.44;;;1.39;65.10
78615;BME280;67937;52.488;20.952;2023-04-03T06:34:07;101536.45;;;1.44;64.46
78615;BME280;67937;52.488;20.952;2023-04-03T06:36:36;101535.72;;;1.45;64.61
78615;BME280;67937;52.488;20.952;2023-04-03T06:39:04;101538.39;;;1.58;64.78
78615;BME280;67937;52.488;20.952;2023-04-03T06:41:32;101546.02;;;1.81;64.12
78615;BME280;67937;52.488;20.952;2023-04-03T06:44:00;101541.14;;;1.88;63.69
78615;BME280;67937;52.488;20.952;2023-04-03T06:46:30;101547.73;;;1.88;63.96
78615;BME280;67937;52.488;20.952;2023-04-03T06:48:58;101542.50;;;1.89;63.70
78615;BME280;67937;52.488;20.952;2023-04-03T06:51:27;101548.38;;;1.98;63.89
78615;BME280;67937;52.488;20.952;2023-04-03T06:53:58;101555.14;;;2.06;63.97
78615;BME280;67937;52.488;20.952;2023-04-03T06:56:27;101555.56;;;2.24;63.57
78615;BME280;67937;52.488;20.952;2023-04-03T06:58:56;101558.14;;;2.38;63.29
78615;BME280;67937;52.488;20.952;2023-04-03T07:01:26;101558.68;;;2.44;63.54
78615;BME280;67937;52.488;20.952;2023-04-03T07:03:55;101557.25;;;2.58;62.82
78615;BME280;67937;52.488;20.952;2023-04-03T07:06:24;101560.95;;;2.63;62.43
78615;BME280;67937;52.488;20.952;2023-04-03T07:08:53;101562.58;;;2.60;62.18
78615;BME280;67937;52.488;20.952;2023-04-03T07:11:22;101562.69;;;2.64;62.09
78615;BME280;67937;52.488;20.952;2023-04-03T07:13:50;101559.36;;;2.71;62.34
78615;BME280;67937;52.488;20.952;2023-04-03T07:16:19;101561.05;;;2.79;62.41
78615;BME280;67937;52.488;20.952;2023-04-03T07:18:47;101559.85;;;2.84;62.12
78615;BME280;67937;52.488;20.952;2023-04-03T07:21:15;101566.06;;;2.93;61.44
78615;BME280;67937;52.488;20.952;2023-04-03T07:23:43;101570.58;;;2.94;61.73
78615;BME280;67937;52.488;20.952;2023-04-03T07:26:11;101571.52;;;3.03;61.34
78615;BME280;67937;52.488;20.952;2023-04-03T07:28:39;101575.73;;;3.08;61.52
78615;BME280;67937;52.488;20.952;2023-04-03T07:31:11;101566.79;;;3.21;61.33
78615;BME280;67937;52.488;20.952;2023-04-03T07:33:40;101571.33;;;3.33;61.40
78615;BME280;67937;52.488;20.952;2023-04-03T07:36:10;101570.14;;;3.43;60.75
78615;BME280;67937;52.488;20.952;2023-04-03T07:38:41;101569.05;;;3.50;60.93
78615;BME280;67937;52.488;20.952;2023-04-03T07:41:14;101567.60;;;3.69;61.10
78615;BME280;67937;52.488;20.952;2023-04-03T07:43:44;101570.52;;;3.82;59.86
78615;BME280;67937;52.488;20.952;2023-04-03T07:46:13;101572.25;;;3.87;59.47
78615;BME280;67937;52.488;20.952;2023-04-03T07:48:41;101574.23;;;3.85;60.18
78615;BME280;67937;52.488;20.952;2023-04-03T07:51:09;101576.30;;;4.02;59.28
78615;BME280;67937;52.488;20.952;2023-04-03T07:53:37;101576.20;;;4.05;58.97
78615;BME280;67937;52.488;20.952;2023-04-03T07:56:06;101574.15;;;4.04;59.22
78615;BME280;67937;52.488;20.952;2023-04-03T07:58:34;101571.64;;;4.11;58.59
78615;BME280;67937;52.488;20.952;2023-04-03T08:01:03;101572.89;;;4.26;58.39
78615;BME280;67937;52.488;20.952;2023-04-03T08:03:31;101577.66;;;4.40;58.17
78615;BME280;67937;52.488;20.952;2023-04-03T08:06:05;101576.88;;;4.47;58.46
78615;BME280;67937;52.488;20.952;2023-04-03T08:08:34;101580.48;;;4.59;57.37
78615;BME280;67937;52.488;20.952;2023-04-03T08:11:03;101578.27;;;4.62;57.58
78615;BME280;67937;52.488;20.952;2023-04-03T08:13:32;101582.39;;;4.74;56.59
78615;BME280;67937;52.488;20.952;2023-04-03T08:16:13;101584.36;;;4.63;56.16
78615;BME280;67937;52.488;20.952;2023-04-03T08:18:44;101580.41;;;4.41;56.88
78615;BME280;67937;52.488;20.952;2023-04-03T08:21:12;101586.39;;;4.55;57.33
78615;BME280;67937;52.488;20.952;2023-04-03T08:23:41;101584.23;;;4.72;56.74
78615;BME280;67937;52.488;20.952;2023-04-03T08:26:13;101585.92;;;4.78;57.20
78615;BME280;67937;52.488;20.952;2023-04-03T08:28:41;101583.44;;;4.98;56.46
78615;BME280;67937;52.488;20.952;2023-04-03T08:31:12;101581.84;;;5.08;55.76
78615;BME280;67937;52.488;20.952;2023-04-03T08:33:42;101585.70;;;5.17;55.89
78615;BME280;67937;52.488;20.952;2023-04-03T08:36:24;101583.61;;;5.36;55.59
78615;BME280;67937;52.488;20.952;2023-04-03T08:38:54;101580.94;;;5.47;55.03
78615;BME280;67937;52.488;20.952;2023-04-03T08:46:42;101587.07;;;5.60;54.60
78615;BME280;67937;52.488;20.952;2023-04-03T08:49:22;101591.05;;;5.74;55.46
78615;BME280;67937;52.488;20.952;2023-04-03T08:51:54;101590.64;;;5.58;54.77
78615;BME280;67937;52.488;20.952;2023-04-03T08:54:44;101591.02;;;5.39;54.50
78615;BME280;67937;52.488;20.952;2023-04-03T08:57:17;101586.96;;;5.76;54.97
78615;BME280;67937;52.488;20.952;2023-04-03T08:59:48;101588.05;;;6.10;54.43
78615;BME280;67937;52.488;20.952;2023-04-03T09:02:25;101594.70;;;6.06;53.16
78615;BME280;67937;52.488;20.952;2023-04-03T09:04:54;101583.15;;;6.05;53.69
78615;BME280;67937;52.488;20.952;2023-04-03T09:07:35;101583.69;;;6.22;53.24
78615;BME280;67937;52.488;20.952;2023-04-03T09:10:05;101588.08;;;6.39;53.02
78615;BME280;67937;52.488;20.952;2023-04-03T09:12:48;101589.03;;;6.24;52.81
78615;BME280;67937;52.488;20.952;2023-04-03T09:15:25;101584.17;;;6.06;52.54
78615;BME280;67937;52.488;20.952;2023-04-03T09:21:07;101587.98;;;5.77;51.99
78615;BME280;67937;52.488;20.952;2023-04-03T09:24:06;101588.06;;;5.84;52.69
78615;BME280;67937;52.488;20.952;2023-04-03T09:26:43;101585.42;;;5.93;52.85
78615;BME280;67937;52.488;20.952;2023-04-03T09:29:17;101584.13;;;6.11;52.38
78615;BME280;67937;52.488;20.952;2023-04-03T09:31:49;101588.09;;;5.96;51.60
78615;BME280;67937;52.488;20.952;2023-04-03T09:34:23;101587.24;;;5.91;51.88
78615;BME280;67937;52.488;20.952;2023-04-03T09:36:55;101598.91;;;5.84;51.33
78615;BME280;67937;52.488;20.952;2023-04-03T09:39:26;101596.26;;;5.76;50.99
78615;BME280;67937;52.488;20.952;2023-04-03T09:41:55;101599.05;;;5.62;51.64
78615;BME280;67937;52.488;20.952;2023-04-03T09:44:27;101600.15;;;5.43;51.31
78615;BME280;67937;52.488;20.952;2023-04-03T09:46:56;101599.79;;;5.52;51.76
78615;BME280;67937;52.488;20.952;2023-04-03T09:49:24;101593.59;;;5.59;51.56
78615;BME280;67937;52.488;20.952;2023-04-03T09:51:53;101592.59;;;5.84;51.48
78615;BME280;67937;52.488;20.952;2023-04-03T09:54:30;101590.89;;;5.88;50.41
78615;BME280;67937;52.488;20.952;2023-04-03T09:57:10;101600.38;;;5.73;50.92
78615;BME280;67937;52.488;20.952;2023-04-03T09:59:47;101600.75;;;5.50;51.03
78615;BME280;67937;52.488;20.952;2023-04-03T10:04:44;101591.08;;;5.83;51.98
78615;BME280;67937;52.488;20.952;2023-04-03T10:07:36;101589.84;;;6.13;52.00
78615;BME280;67937;52.488;20.952;2023-04-03T10:10:22;101594.83;;;6.15;50.72
78615;BME280;67937;52.488;20.952;2023-04-03T10:13:07;101605.23;;;5.88;50.59
78615;BME280;67937;52.488;20.952;2023-04-03T10:15:43;101594.84;;;5.81;50.52
78615;BME280;67937;52.488;20.952;2023-04-03T10:21:06;101596.28;;;5.79;49.07
78615;BME280;67937;52.488;20.952;2023-04-03T10:23:43;101593.90;;;5.82;49.56
78615;BME280;67937;52.488;20.952;2023-04-03T10:31:50;101594.86;;;5.20;48.75
78615;BME280;67937;52.488;20.952;2023-04-03T10:34:25;101591.34;;;5.31;49.60
78615;BME280;67937;52.488;20.952;2023-04-03T11:01:42;101569.82;;;6.47;47.84
78615;BME280;67937;52.488;20.952;2023-04-03T11:04:12;101573.77;;;6.08;48.02
78615;BME280;67937;52.488;20.952;2023-04-03T11:06:49;101570.19;;;6.18;47.97
78615;BME280;67937;52.488;20.952;2023-04-03T11:09:24;101563.09;;;6.20;48.08
78615;BME280;67937;52.488;20.952;2023-04-03T11:12:25;101561.08;;;6.05;47.97
78615;BME280;67937;52.488;20.952;2023-04-03T11:14:56;101569.15;;;5.87;48.68
78615;BME280;67937;52.488;20.952;2023-04-03T11:17:35;101573.52;;;5.66;48.33
78615;BME280;67937;52.488;20.952;2023-04-03T11:20:20;101574.35;;;5.54;48.69
78615;BME280;67937;52.488;20.952;2023-04-03T11:23:19;101573.10;;;5.81;48.23
78615;BME280;67937;52.488;20.952;2023-04-03T11:25:51;101564.98;;;6.25;47.65
78615;BME280;67937;52.488;20.952;2023-04-03T11:28:21;101558.91;;;6.72;46.97
78615;BME280;67937;52.488;20.952;2023-04-03T11:36:26;101547.36;;;7.25;45.86
78615;BME280;67937;52.488;20.952;2023-04-03T11:38:58;101550.58;;;7.17;46.29
78615;BME280;67937;52.488;20.952;2023-04-03T11:41:30;101542.73;;;7.45;46.20
78615;BME280;67937;52.488;20.952;2023-04-03T11:44:05;101545.68;;;7.72;46.27
78615;BME280;67937;52.488;20.952;2023-04-03T11:46:56;101541.29;;;7.83;45.63
78615;BME280;67937;52.488;20.952;2023-04-03T11:52:12;101537.00;;;7.91;45.48
78615;BME280;67937;52.488;20.952;2023-04-03T12:00:48;101533.04;;;8.25;44.56
78615;BME280;67937;52.488;20.952;2023-04-03T12:13:38;101521.62;;;8.91;43.22
78615;BME280;67937;52.488;20.952;2023-04-03T12:24:04;101530.20;;;8.08;43.06
78615;BME280;67937;52.488;20.952;2023-04-03T12:29:33;101530.16;;;8.19;43.44
78615;BME280;67937;52.488;20.952;2023-04-03T12:35:30;101524.36;;;8.08;44.15
78615;BME280;67937;52.488;20.952;2023-04-03T12:43:50;101538.30;;;7.05;45.12
78615;BME280;67937;52.488;20.952;2023-04-03T12:46:24;101530.17;;;6.79;45.14
78615;BME280;67937;52.488;20.952;2023-04-03T12:48:56;101535.24;;;6.99;45.14
78615;BME280;67937;52.488;20.952;2023-04-03T12:51:39;101532.00;;;7.09;45.06
78615;BME280;67937;52.488;20.952;2023-04-03T12:56:42;101515.85;;;7.53;44.35
78615;BME280;67937;52.488;20.952;2023-04-03T13:04:23;101524.48;;;7.45;44.96
78615;BME280;67937;52.488;20.952;2023-04-03T13:06:51;101535.38;;;7.04;45.02
78615;BME280;67937;52.488;20.952;2023-04-03T13:09:25;101533.77;;;6.93;45.28
78615;BME280;67937;52.488;20.952;2023-04-03T13:12:10;101526.67;;;7.21;45.06
78615;BME280;67937;52.488;20.952;2023-04-03T13:14:40;101529.10;;;7.48;44.24
78615;BME280;67937;52.488;20.952;2023-04-03T13:17:15;101519.04;;;7.45;44.59
78615;BME280;67937;52.488;20.952;2023-04-03T13:19:44;101521.14;;;7.27;44.15
78615;BME280;67937;52.488;20.952;2023-04-03T13:22:33;101529.17;;;7.01;43.89
78615;BME280;67937;52.488;20.952;2023-04-03T13:25:07;101526.10;;;6.84;44.17
78615;BME280;67937;52.488;20.952;2023-04-03T13:27:38;101521.96;;;7.13;44.44
78615;BME280;67937;52.488;20.952;2023-04-03T13:30:24;101523.44;;;7.56;44.21
78615;BME280;67937;52.488;20.952;2023-04-03T13:32:55;101521.60;;;7.43;43.45
78615;BME280;67937;52.488;20.952;2023-04-03T13:38:04;101524.35;;;7.07;44.21
78615;BME280;67937;52.488;20.952;2023-04-03T13:40:33;101521.86;;;6.85;44.93
78615;BME280;67937;52.488;20.952;2023-04-03T13:43:05;101523.86;;;6.72;45.33
78615;BME280;67937;52.488;20.952;2023-04-03T13:45:34;101525.34;;;6.62;45.21
78615;BME280;67937;52.488;20.952;2023-04-03T13:48:11;101523.39;;;6.42;45.64
78615;BME280;67937;52.488;20.952;2023-04-03T13:50:56;101522.04;;;6.29;45.95
78615;BME280;67937;52.488;20.952;2023-04-03T13:53:26;101525.48;;;6.26;46.57
78615;BME280;67937;52.488;20.952;2023-04-03T13:58:30;101525.25;;;6.53;46.17
78615;BME280;67937;52.488;20.952;2023-04-03T14:06:23;101524.33;;;6.61;46.14
78615;BME280;67937;52.488;20.952;2023-04-03T14:08:52;101523.08;;;6.69;45.62
78615;BME280;67937;52.488;20.952;2023-04-03T14:11:23;101519.73;;;6.58;45.95
78615;BME280;67937;52.488;20.952;2023-04-03T14:13:55;101522.60;;;6.49;46.39
78615;BME280;67937;52.488;20.952;2023-04-03T14:16:28;101521.77;;;6.40;46.41
78615;BME280;67937;52.488;20.952;2023-04-03T14:18:58;101524.14;;;6.29;46.66
78615;BME280;67937;52.488;20.952;2023-04-03T14:21:27;101524.20;;;6.16;46.63
78615;BME280;67937;52.488;20.952;2023-04-03T14:23:55;101526.02;;;6.22;46.86
78615;BME280;67937;52.488;20.952;2023-04-03T14:26:24;101524.82;;;6.38;46.51
78615;BME280;67937;52.488;20.952;2023-04-03T14:28:54;101520.23;;;6.51;45.75
78615;BME280;67937;52.488;20.952;2023-04-03T14:31:23;101509.14;;;6.60;45.43
78615;BME280;67937;52.488;20.952;2023-04-03T14:33:51;101514.45;;;6.50;45.33
78615;BME280;67937;52.488;20.952;2023-04-03T14:36:27;101513.77;;;6.42;45.76
78615;BME280;67937;52.488;20.952;2023-04-03T14:38:56;101515.45;;;6.32;45.74
78615;BME280;67937;52.488;20.952;2023-04-03T14:41:26;101520.88;;;6.19;45.98
78615;BME280;67937;52.488;20.952;2023-04-03T14:43:54;101515.85;;;6.10;46.33
78615;BME280;67937;52.488;20.952;2023-04-03T14:46:27;101518.04;;;6.08;46.10
78615;BME280;67937;52.488;20.952;2023-04-03T14:48:56;101516.17;;;5.99;46.13
78615;BME280;67937;52.488;20.952;2023-04-03T14:51:24;101518.10;;;5.90;46.10
78615;BME280;67937;52.488;20.952;2023-04-03T14:53:52;101517.66;;;5.79;45.88
78615;BME280;67937;52.488;20.952;2023-04-03T14:56:27;101520.23;;;5.67;45.89